Terminal Aerodrome Forecast
Issued by NWS Wilmington, OH

Current Version | Previous Version | Graphics & Text | Print | Product List | Glossary On
Versions: 1 2 3 4 5 6 7 8 9 10 11 12 13 14 15 16 17 18 19 20 21 22 23 24
000
FTUS41 KILN 271317 AAA
TAFDAY
TAF AMD
KDAY 271317Z 2713/2812 00000KT 4SM BR VCSH FEW004 BKN025
      TEMPO 2713/2715 2SM -RA BR BKN004
     FM271500 12005KT P6SM VCSH SCT025 BKN150
      TEMPO 2716/2720 4SM -RA OVC025
     FM280000 05003KT 5SM BR FEW030 SCT150
     FM280500 07002KT 5SM BR SKC=

USA.gov is the U.S. government's official web portal to all federal, state and local government web resources and services.